Nearby METAR Reports

 

KSJC - San Jose, California, USA
Distance from station: NE 14km
Actualización: 22/01/2019 03:53
Despejado
Despejado
 Viento del OSO
Viento: OSO 11 km/h
Temperatura: 8°C
Wind Chill: 6°C
Rocío: 5°C
Humedad: 82%
Barómetro: 1027.4 hPa
Clouds: Despejado
Visibility: 16 km
2019/01/22 10:53 KSJC 221053Z AUTO 25006KT 10SM CLR 08/05 A3034 RMK AO2 SLP275 T00780050 $
KNUQ - Moffett Nas/Mtn, California, USA
Distance from station: N 14km
Actualización: 22/01/2019 03:56
Despejado
Despejado
 Viento del calm
Viento: Calma
Temperatura: 8°C
Rocío: 5°C
Humedad: 82%
Barómetro: 1028.1 hPa
Clouds: Despejado
Visibility: 16 km
2019/01/22 10:56 KNUQ 221056Z AUTO 00000KT 10SM CLR 08/05 A3036 RMK AO2 SLP282 T00780050
 
KPAO - Palo Alto, California, USA
Distance from station: NNO 23km
Actualización: 21/01/2019 21:47
NOT Current
Despejado
Despejado
 Viento del O
Viento: O 9 km/h
Temperatura: 10°C
Wind Chill: 9°C
Rocío: 8°C
Humedad: 88%
Barómetro: 1026.8 hPa
Clouds: Despejado
Visibility: 16 km
2019/01/22 04:47 KPAO 220447Z 28005KT 10SM SKC 10/08 A3032 RMK LAST
KRHV - San Jose/Reid, California, USA
Distance from station: ENE 19km
Actualización: 21/01/2019 22:47
NOT Current
Despejado
Despejado
 Viento del NNO
Viento: NNO 9 km/h
Temperatura: 7°C
Wind Chill: 6°C
Rocío: 6°C
Humedad: 93%
Barómetro: 1025.7 hPa
Clouds: Despejado
Visibility: 16 km
2019/01/22 05:47 KRHV 220547Z 34005KT 10SM SKC 07/06 A3029 RMK LAST
 
KOAK - Oakland, California, USA
Distance from station: NNO 50km
Actualización: 22/01/2019 03:53
Despejado
Despejado
 Viento del calm
Viento: Calma
Temperatura: 9°C
Rocío: 3°C
Humedad: 66%
Barómetro: 1027.8 hPa
Clouds: Despejado
Visibility: 16 km
2019/01/22 10:53 KOAK 221053Z 00000KT 10SM CLR 09/03 A3035 RMK AO2 SLP278 T00940028
KSQL - San Carlos Airpo, California, USA
Distance from station: NO 34km
Actualización: 22/01/2019 04:00
Despejado
Despejado
 Viento del NO
Viento: NO 9 km/h
Temperatura: 7°C
Wind Chill: 6°C
Rocío: 5°C
Humedad: 87%
Barómetro: 1027.8 hPa
Clouds: Despejado
Visibility: 16 km
2019/01/22 11:00 KSQL 221100Z AUTO 32005KT 10SM CLR 07/05 A3035 RMK AO2
 
KSFO - San Francisco, California, USA
Distance from station: NO 49km
Actualización: 22/01/2019 03:56
Despejado
Despejado
 Viento del N
Viento: N 15 km/h
Temperatura: 10°C
Wind Chill: 8°C
Rocío: 4°C
Humedad: 67%
Barómetro: 1027.8 hPa
Clouds: Despejado
Visibility: 16 km
2019/01/22 10:56 KSFO 221056Z 35008KT 10SM CLR 10/04 A3035 RMK AO2 SLP277 T01000044 $
KE16 - San Martin, California, USA
Distance from station: ESE 43km
Actualización: 22/01/2019 03:50
Despejado
Despejado
 Viento del NNO
Viento: NNO 17 km/h
Temperatura: 7°C
Wind Chill: 4°C
Rocío: 5°C
Humedad: 87%
Barómetro: 1027.1 hPa
Clouds: Despejado
Visibility: 16 km
2019/01/22 10:50 KE16 221050Z AUTO 34009KT 10SM CLR 07/05 A3033 RMK AO2
 
KWVI - Watsonville, California, USA
Distance from station: SSE 44km
Actualización: 22/01/2019 03:53
Despejado
Despejado
 Viento del calm
Viento: Calma
Temperatura: 6°C
Rocío: 4°C
Humedad: 87%
Barómetro: 1026.8 hPa
Clouds: Despejado
Visibility: 16 km
2019/01/22 10:53 KWVI 221053Z AUTO 00000KT 10SM CLR 06/04 A3032 RMK AO2 SLP266 T00560044
KHAF - Half Moon Bay, California, USA
Distance from station: ONO 50km
Actualización: 22/01/2019 03:55
Despejado
Despejado
 Viento del NNO
Viento: NNO 13 km/h
Temperatura: 10°C
Wind Chill: 8°C
Rocío: 1°C
Humedad: 54%
Barómetro: 1027.8 hPa
Clouds: Despejado
Visibility: 16 km
2019/01/22 10:55 KHAF 221055Z AUTO 34007KT 10SM CLR 10/01 A3035 RMK AO2
 
KHWD - Hayward, California, USA
Distance from station: N 44km
Actualización: 22/01/2019 03:54
Despejado
Despejado
 Viento del calm
Viento: Calma
Temperatura: 6°C
Rocío: 3°C
Humedad: 81%
Barómetro: 1027.8 hPa
Clouds: Despejado
Visibility: 16 km
2019/01/22 10:54 KHWD 221054Z AUTO 00000KT 10SM CLR 06/03 A3035 RMK AO2 SLP286 T00610028
KLVK - Livermore, California, USA
Distance from station: NNE 51km
Actualización: 22/01/2019 03:53
Despejado
Despejado
 Viento del calm
Viento: Calma
Temperatura: 7°C
Rocío: 0°C
Humedad: 61%
Barómetro: 1027.4 hPa
Clouds: Despejado
Visibility: 16 km
2019/01/22 10:53 KLVK 221053Z AUTO 00000KT 10SM CLR 07/00 A3034 RMK AO2 SLP275 T00670000